createdAt,value
2022-08-22T00:02:15.228Z,11.88
2022-08-22T00:02:45.362Z,4.50
2022-08-22T00:02:56.172Z,5.32
2022-08-22T00:03:06.789Z,28.17
2022-08-22T00:03:08.941Z,15.05
2022-08-22T00:03:16.107Z,22.30
2022-08-22T00:04:50.097Z,19.13
2022-08-22T00:07:50.115Z,10.23
2022-08-22T00:10:29.694Z,13.38
2022-08-22T00:13:24.012Z,20.77
2022-08-22T00:16:05.407Z,17.05
2022-08-22T00:18:51.051Z,19.33
2022-08-22T00:21:32.402Z,19.90
2022-08-22T00:24:08.941Z,11.35
2022-08-22T00:27:18.155Z,18.80
2022-08-22T00:29:56.439Z,10.00
2022-08-22T00:32:36.769Z,10.95
2022-08-22T00:35:30.747Z,8.52
2022-08-22T00:38:12.590Z,8.98
2022-08-22T00:41:01.322Z,9.75
2022-08-22T00:43:41.057Z,19.85
2022-08-22T00:46:54.049Z,19.83
2022-08-22T00:49:52.067Z,8.23
2022-08-22T00:52:49.648Z,16.23
2022-08-22T00:55:45.430Z,31.05
2022-08-22T00:58:37.155Z,25.52
2022-08-22T01:01:11.360Z,21.02
2022-08-22T01:03:50.648Z,19.50
2022-08-22T01:06:45.339Z,14.80
2022-08-22T01:09:57.267Z,13.45
2022-08-22T01:12:56.894Z,27.15
2022-08-22T01:15:32.305Z,57.22
2022-08-22T01:18:20.942Z,34.35
2022-08-22T01:21:15.482Z,23.55
2022-08-22T01:24:03.787Z,19.23
2022-08-22T01:29:30.814Z,14.55
2022-08-22T01:32:29.529Z,13.80
2022-08-22T01:35:14.978Z,15.65
2022-08-22T01:38:13.523Z,19.35
2022-08-22T01:41:23.316Z,26.65
2022-08-22T01:44:05.922Z,21.48
2022-08-22T01:47:07.985Z,28.60
2022-08-22T01:50:04.271Z,26.88
2022-08-22T01:52:44.923Z,22.45
2022-08-22T01:55:53.627Z,18.45
2022-08-22T01:58:28.915Z,23.42
2022-08-22T02:01:13.483Z,30.80
2022-08-22T02:03:53.234Z,28.60
2022-08-22T02:06:39.334Z,33.67
2022-08-22T02:09:54.197Z,29.50
2022-08-22T02:12:43.192Z,59.30
2022-08-22T02:15:23.082Z,56.53
2022-08-22T02:18:17.982Z,56.40
2022-08-22T02:21:32.654Z,77.10
2022-08-22T02:24:17.971Z,59.70
2022-08-22T02:26:59.465Z,57.35
2022-08-22T02:29:54.761Z,42.47
2022-08-22T02:32:36.741Z,42.10
2022-08-22T02:35:22.176Z,40.10
2022-08-22T02:38:11.849Z,37.15
2022-08-22T02:41:13.068Z,27.08
2022-08-22T02:44:10.532Z,36.05
2022-08-22T02:47:10.207Z,37.72
2022-08-22T02:50:20.582Z,36.40
2022-08-22T02:53:08.227Z,37.90
2022-08-22T02:55:57.128Z,31.27
2022-08-22T02:58:48.091Z,35.28
2022-08-22T03:01:31.085Z,26.63
2022-08-22T03:07:23.366Z,23.98
2022-08-22T03:10:19.507Z,24.00
2022-08-22T03:13:26.046Z,21.05
2022-08-22T03:16:13.238Z,13.13
2022-08-22T03:19:43.015Z,15.68
2022-08-22T03:22:26.959Z,20.00
2022-08-22T03:25:20.620Z,15.15
2022-08-22T03:28:03.436Z,11.18
2022-08-22T03:30:45.468Z,11.32
2022-08-22T03:33:35.430Z,9.73
2022-08-22T03:36:10.816Z,11.20
2022-08-22T03:39:17.397Z,7.68
2022-08-22T03:42:20.165Z,12.10
2022-08-22T03:45:16.959Z,16.80
2022-08-22T03:48:15.973Z,15.52
2022-08-22T03:50:57.423Z,18.65
2022-08-22T03:53:48.802Z,19.80
2022-08-22T03:56:41.188Z,20.52
2022-08-22T03:59:32.654Z,20.73
2022-08-22T04:02:41.755Z,27.25
2022-08-22T04:07:52.933Z,28.60
2022-08-22T04:11:02.456Z,23.52
2022-08-22T04:14:10.582Z,21.38
2022-08-22T04:16:56.273Z,14.10
2022-08-22T04:19:48.019Z,14.23
2022-08-22T04:22:30.426Z,24.63
2022-08-22T04:25:40.102Z,21.25
2022-08-22T04:28:36.079Z,19.60
2022-08-22T04:31:09.469Z,14.23
2022-08-22T04:33:59.184Z,15.63
2022-08-22T04:36:47.351Z,20.77
2022-08-22T04:39:24.233Z,19.90
2022-08-22T04:42:35.127Z,19.55
2022-08-22T04:45:21.715Z,14.55
2022-08-22T04:47:56.155Z,18.02
2022-08-22T04:50:30.715Z,13.10
2022-08-22T04:53:25.833Z,14.07
2022-08-22T04:56:08.019Z,16.92
2022-08-22T04:59:20.556Z,15.68
2022-08-22T05:02:00.558Z,16.75
2022-08-22T05:04:40.225Z,23.02
2022-08-22T05:07:39.245Z,23.85
2022-08-22T05:10:18.006Z,17.65
2022-08-22T05:12:56.622Z,24.15
2022-08-22T05:15:36.216Z,25.60
2022-08-22T05:18:14.917Z,20.40
2022-08-22T05:20:50.271Z,26.83
2022-08-22T05:23:20.804Z,29.95
2022-08-22T05:25:55.762Z,24.08
2022-08-22T05:28:28.962Z,23.42
2022-08-22T05:31:00.354Z,18.38
2022-08-22T05:33:39.698Z,14.57
2022-08-22T05:36:24.573Z,23.30
2022-08-22T05:39:25.295Z,23.45
2022-08-22T05:41:58.210Z,16.00
2022-08-22T05:44:34.497Z,23.90
2022-08-22T05:47:44.080Z,24.95
2022-08-22T05:50:51.123Z,17.88
2022-08-22T05:53:43.668Z,31.33
2022-08-22T05:56:33.147Z,24.25
2022-08-22T05:59:24.480Z,26.52
2022-08-22T06:02:04.184Z,25.52
2022-08-22T06:04:56.679Z,21.17
2022-08-22T06:07:35.461Z,17.27
2022-08-22T06:10:27.374Z,15.98
2022-08-22T06:13:16.936Z,19.38
2022-08-22T06:16:11.820Z,20.08
2022-08-22T06:18:45.064Z,27.17
2022-08-22T06:21:37.641Z,11.73
2022-08-22T06:24:16.030Z,20.05
2022-08-22T06:26:52.462Z,12.80
2022-08-22T06:29:45.754Z,13.88
2022-08-22T06:32:58.253Z,10.25
2022-08-22T06:35:30.030Z,11.93
2022-08-22T06:38:02.721Z,12.88
2022-08-22T06:40:33.930Z,17.30
2022-08-22T06:43:06.053Z,13.70
2022-08-22T06:45:37.761Z,14.25
2022-08-22T06:48:08.088Z,16.58
2022-08-22T06:50:44.789Z,13.88
2022-08-22T06:53:20.329Z,17.13
2022-08-22T06:55:58.720Z,19.40
2022-08-22T06:58:55.344Z,18.70
2022-08-22T07:01:30.892Z,25.38
2022-08-22T07:04:10.687Z,25.23
2022-08-22T07:06:47.573Z,20.30
2022-08-22T07:12:03.724Z,14.32
2022-08-22T07:14:42.853Z,15.15
2022-08-22T07:17:23.334Z,13.35
2022-08-22T07:20:07.450Z,14.05
2022-08-22T07:22:39.300Z,18.02
2022-08-22T07:25:14.947Z,19.42
2022-08-22T07:27:54.769Z,14.57
2022-08-22T07:30:28.586Z,14.95
2022-08-22T07:33:26.811Z,18.98
2022-08-22T07:36:03.105Z,16.85
2022-08-22T07:38:33.445Z,14.40
2022-08-22T07:41:16.813Z,16.00
2022-08-22T07:44:07.943Z,15.32
2022-08-22T07:46:51.456Z,21.08
2022-08-22T07:49:39.914Z,15.70
2022-08-22T07:52:20.866Z,21.67
2022-08-22T07:54:59.331Z,20.05
2022-08-22T07:57:37.891Z,17.75
2022-08-22T08:00:15.674Z,18.90
2022-08-22T08:02:54.708Z,16.88
2022-08-22T08:05:29.682Z,17.35
2022-08-22T08:08:02.760Z,17.30
2022-08-22T08:10:36.798Z,17.17
2022-08-22T08:13:20.704Z,15.98
2022-08-22T08:15:52.712Z,10.60
2022-08-22T08:18:27.962Z,21.45
2022-08-22T08:21:04.920Z,24.48
2022-08-22T08:23:42.931Z,13.68
2022-08-22T08:26:22.573Z,16.20
2022-08-22T08:28:56.799Z,16.80
2022-08-22T08:31:43.394Z,15.07
2022-08-22T08:34:25.723Z,10.50
2022-08-22T08:37:04.088Z,17.15
2022-08-22T08:39:49.802Z,16.45
2022-08-22T08:43:22.249Z,12.13
2022-08-22T08:46:19.547Z,8.52
2022-08-22T08:49:25.789Z,15.52
2022-08-22T08:52:17.482Z,11.73
2022-08-22T08:55:21.908Z,12.05
2022-08-22T08:58:22.402Z,11.52
2022-08-22T09:00:57.689Z,14.75
2022-08-22T09:03:59.729Z,15.23
2022-08-22T09:09:52.507Z,12.73
2022-08-22T09:13:11.512Z,10.43
2022-08-22T09:16:05.327Z,15.68
2022-08-22T09:19:09.907Z,16.73
2022-08-22T09:22:15.039Z,18.98
2022-08-22T09:24:53.124Z,15.63
2022-08-22T09:27:39.310Z,19.17
2022-08-22T09:30:16.916Z,17.05
2022-08-22T09:33:13.789Z,15.57
2022-08-22T09:36:05.666Z,10.98
2022-08-22T09:38:55.614Z,14.02
2022-08-22T09:41:52.256Z,16.45
2022-08-22T09:44:40.560Z,17.67
2022-08-22T09:47:24.723Z,14.38
2022-08-22T09:50:21.769Z,25.15
2022-08-22T09:52:58.566Z,12.05
2022-08-22T09:55:40.137Z,18.33
2022-08-22T09:58:24.853Z,22.10
2022-08-22T10:01:08.343Z,21.95
2022-08-22T10:03:47.864Z,16.02
2022-08-22T10:06:30.181Z,13.88
2022-08-22T10:09:05.184Z,25.75
2022-08-22T10:11:51.292Z,19.55
2022-08-22T10:14:29.878Z,21.10
2022-08-22T10:17:07.138Z,20.65
2022-08-22T10:19:54.225Z,11.93
2022-08-22T10:23:09.367Z,10.02
2022-08-22T10:25:54.737Z,13.55
2022-08-22T10:28:49.086Z,15.82
2022-08-22T10:31:25.593Z,8.80
2022-08-22T10:34:12.006Z,13.02
2022-08-22T10:37:01.705Z,7.82
2022-08-22T10:39:48.862Z,8.93
2022-08-22T10:42:35.357Z,13.05
2022-08-22T10:45:23.944Z,10.90
2022-08-22T10:48:12.498Z,13.60
2022-08-22T10:50:50.490Z,14.15
2022-08-22T10:53:44.704Z,15.15
2022-08-22T10:56:21.378Z,12.68
2022-08-22T10:59:02.482Z,16.33
2022-08-22T11:01:47.439Z,28.10
2022-08-22T11:04:30.869Z,16.67
2022-08-22T11:07:39.584Z,21.30
2022-08-22T11:10:22.477Z,27.08
2022-08-22T11:13:23.339Z,20.02
2022-08-22T11:16:04.389Z,20.48
2022-08-22T11:19:14.743Z,29.67
2022-08-22T11:22:07.302Z,28.70
2022-08-22T11:25:04.399Z,27.15
2022-08-22T11:28:02.888Z,22.10
2022-08-22T11:31:13.968Z,26.50
2022-08-22T11:34:13.325Z,28.17
2022-08-22T11:36:56.303Z,32.63
2022-08-22T11:39:49.094Z,21.15
2022-08-22T11:42:29.529Z,19.13
2022-08-22T11:45:07.461Z,30.70
2022-08-22T11:47:49.489Z,33.35
2022-08-22T11:50:30.830Z,22.10
2022-08-22T11:53:15.187Z,17.58
2022-08-22T11:55:58.315Z,17.50
2022-08-22T11:58:55.229Z,26.40
2022-08-22T12:01:34.285Z,15.15
2022-08-22T12:04:15.361Z,16.13
2022-08-22T12:06:49.674Z,16.73
2022-08-22T12:09:41.249Z,21.88
2022-08-22T12:12:27.429Z,17.58
2022-08-22T12:15:08.912Z,26.02
2022-08-22T12:17:55.267Z,18.42
2022-08-22T12:20:56.192Z,14.65
2022-08-22T12:23:48.622Z,13.93
2022-08-22T12:27:08.224Z,11.43
2022-08-22T12:30:06.037Z,17.00
2022-08-22T12:33:08.529Z,11.95
2022-08-22T12:36:09.602Z,11.20
2022-08-22T12:39:21.344Z,8.95
2022-08-22T12:42:12.522Z,7.32
2022-08-22T12:44:54.744Z,8.00
2022-08-22T12:48:01.797Z,8.32
2022-08-22T12:50:53.656Z,7.72
2022-08-22T12:53:58.113Z,11.32
2022-08-22T12:57:24.382Z,9.63
2022-08-22T13:00:11.696Z,9.75
2022-08-22T13:02:46.337Z,7.57
2022-08-22T13:05:22.340Z,9.80
2022-08-22T13:08:04.545Z,4.75
2022-08-22T13:10:44.732Z,10.38
2022-08-22T13:13:36.925Z,11.98
2022-08-22T13:16:20.995Z,7.07
2022-08-22T13:19:07.652Z,9.73
2022-08-22T13:21:51.320Z,8.50
2022-08-22T13:24:52.426Z,7.25
2022-08-22T13:27:30.291Z,9.98
2022-08-22T13:30:14.753Z,6.90
2022-08-22T13:32:58.431Z,7.68
2022-08-22T13:35:44.693Z,9.32
2022-08-22T13:38:56.249Z,8.75
2022-08-22T13:41:42.706Z,10.32
2022-08-22T13:44:21.712Z,10.50
2022-08-22T13:47:12.946Z,10.80
2022-08-22T13:49:55.850Z,13.40
2022-08-22T13:52:38.077Z,9.35
2022-08-22T13:55:27.651Z,12.95
2022-08-22T13:58:18.864Z,12.65
2022-08-22T14:01:31.054Z,8.85
2022-08-22T14:04:01.542Z,9.25
2022-08-22T14:06:58.446Z,7.60
2022-08-22T14:10:04.203Z,8.05
2022-08-22T14:12:58.908Z,9.50
2022-08-22T14:15:45.442Z,9.15
2022-08-22T14:18:30.417Z,7.93
2022-08-22T14:21:40.908Z,8.52
2022-08-22T14:24:55.802Z,9.40
2022-08-22T14:27:47.706Z,8.93
2022-08-22T14:30:35.745Z,8.60
2022-08-22T14:33:32.879Z,5.68
2022-08-22T14:36:14.564Z,8.63
2022-08-22T14:39:31.387Z,4.65
2022-08-22T14:42:28.831Z,10.48
2022-08-22T14:45:10.161Z,7.75
2022-08-22T14:48:14.255Z,6.18
2022-08-22T14:51:04.196Z,9.68
2022-08-22T14:53:38.113Z,10.65
2022-08-22T14:56:19.960Z,6.25
2022-08-22T14:58:53.577Z,8.27
2022-08-22T15:01:29.694Z,6.47
2022-08-22T15:04:11.011Z,9.65
2022-08-22T15:06:52.615Z,9.68
2022-08-22T15:09:37.161Z,10.18
2022-08-22T15:12:28.845Z,8.82
2022-08-22T15:15:09.393Z,6.40
2022-08-22T15:17:50.812Z,5.50
2022-08-22T15:20:49.386Z,9.13
2022-08-22T15:23:25.971Z,4.50
2022-08-22T15:26:13.260Z,7.30
2022-08-22T15:28:44.978Z,8.18
2022-08-22T15:31:24.229Z,7.82
2022-08-22T15:34:06.484Z,7.93
2022-08-22T15:36:36.999Z,6.97
2022-08-22T15:39:37.945Z,14.10
2022-08-22T15:42:08.711Z,11.77
2022-08-22T15:44:44.183Z,13.70
2022-08-22T15:47:40.951Z,9.88
2022-08-22T15:50:29.697Z,15.15
2022-08-22T15:53:26.494Z,12.00
2022-08-22T15:56:08.921Z,14.38
2022-08-22T15:58:48.859Z,14.77
2022-08-22T16:01:25.828Z,9.38
2022-08-22T16:04:02.219Z,13.73
2022-08-22T16:06:57.874Z,16.33
2022-08-22T16:09:48.695Z,16.05
2022-08-22T16:12:37.188Z,12.05
2022-08-22T16:15:29.585Z,11.18
2022-08-22T16:18:01.198Z,8.50
2022-08-22T16:20:31.612Z,13.75
2022-08-22T16:23:01.885Z,19.88
2022-08-22T16:28:57.412Z,14.13
2022-08-22T16:31:34.430Z,15.55
2022-08-22T16:34:19.740Z,15.32
2022-08-22T16:36:53.284Z,12.35
2022-08-22T16:39:23.699Z,10.65
2022-08-22T16:42:17.195Z,12.20
2022-08-22T16:45:13.763Z,7.63
2022-08-22T16:47:58.687Z,9.40
2022-08-22T16:50:35.576Z,8.07
2022-08-22T16:53:23.977Z,7.57
2022-08-22T16:56:06.623Z,14.80
2022-08-22T16:59:22.335Z,11.02
2022-08-22T17:02:13.161Z,9.57
2022-08-22T17:04:58.883Z,6.50
2022-08-22T17:07:41.612Z,6.00
2022-08-22T17:10:30.222Z,7.50
2022-08-22T17:13:15.744Z,8.00
2022-08-22T17:15:52.258Z,6.68
2022-08-22T17:18:41.448Z,6.68
2022-08-22T17:21:40.607Z,6.55
2022-08-22T17:24:37.979Z,6.13
2022-08-22T17:27:30.562Z,5.97
2022-08-22T17:30:11.741Z,4.55
2022-08-22T17:32:57.180Z,8.00
2022-08-22T17:35:47.049Z,5.47
2022-08-22T17:38:35.887Z,5.75
2022-08-22T17:44:06.296Z,5.60
2022-08-22T17:46:54.777Z,4.38
2022-08-22T17:49:40.300Z,7.25
2022-08-22T17:52:13.736Z,4.25
2022-08-22T17:55:02.214Z,3.13
2022-08-22T17:57:41.101Z,3.35
2022-08-22T18:00:25.538Z,3.88
2022-08-22T18:03:27.062Z,3.35
2022-08-22T18:06:18.942Z,4.03
2022-08-22T18:09:18.550Z,9.05
2022-08-22T18:12:04.841Z,5.80
2022-08-22T18:14:56.542Z,8.25
2022-08-22T18:17:59.283Z,10.35
2022-08-22T18:20:46.001Z,4.90
2022-08-22T18:23:42.835Z,3.58
2022-08-22T18:26:40.676Z,4.30
2022-08-22T18:29:20.857Z,4.97
2022-08-22T18:31:51.314Z,4.85
2022-08-22T18:34:25.442Z,16.58
2022-08-22T18:37:05.492Z,6.00
2022-08-22T18:39:56.386Z,6.80
2022-08-22T18:42:45.538Z,5.05
2022-08-22T18:45:47.489Z,4.07
2022-08-22T18:48:25.028Z,6.75
2022-08-22T18:51:29.112Z,4.63
2022-08-22T18:54:08.243Z,3.75
2022-08-22T18:56:51.595Z,8.82
2022-08-22T18:59:44.499Z,3.20
2022-08-22T19:02:23.947Z,8.55
2022-08-22T19:05:13.089Z,7.78
2022-08-22T19:08:12.949Z,4.35
2022-08-22T19:10:53.858Z,4.72
2022-08-22T19:13:48.890Z,7.03
2022-08-22T19:19:17.106Z,3.72
2022-08-22T19:22:21.769Z,5.65
2022-08-22T19:25:16.105Z,4.50
2022-08-22T19:28:07.483Z,6.10
2022-08-22T19:30:51.408Z,4.20
2022-08-22T19:33:39.738Z,8.57
2022-08-22T19:36:34.877Z,4.45
2022-08-22T19:39:43.460Z,4.40
2022-08-22T19:42:20.873Z,3.15
2022-08-22T19:45:01.981Z,3.97
2022-08-22T19:48:14.121Z,4.50
2022-08-22T19:50:45.468Z,5.20
2022-08-22T19:53:29.214Z,6.20
2022-08-22T19:56:05.578Z,5.72
2022-08-22T19:58:58.024Z,4.60
2022-08-22T20:01:44.433Z,3.90
2022-08-22T20:04:48.971Z,5.13
2022-08-22T20:07:47.421Z,2.80
2022-08-22T20:10:29.624Z,7.07
2022-08-22T20:13:13.073Z,3.30
2022-08-22T20:16:15.234Z,3.55
2022-08-22T20:19:06.669Z,3.50
2022-08-22T20:21:47.430Z,6.13
2022-08-22T20:24:29.583Z,5.15
2022-08-22T20:27:13.912Z,6.50
2022-08-22T20:30:05.878Z,9.10
2022-08-22T20:32:46.587Z,2.95
2022-08-22T20:35:36.129Z,7.68
2022-08-22T20:38:12.608Z,10.88
2022-08-22T20:40:55.355Z,10.57
2022-08-22T20:43:38.481Z,11.35
2022-08-22T20:46:16.574Z,7.40
2022-08-22T20:48:48.938Z,6.78
2022-08-22T20:51:28.519Z,4.32
2022-08-22T20:54:17.152Z,3.17
2022-08-22T20:56:53.971Z,5.85
2022-08-22T20:59:32.643Z,4.50
2022-08-22T21:02:30.369Z,5.20
2022-08-22T21:05:08.174Z,4.05
2022-08-22T21:07:44.895Z,4.43
2022-08-22T21:10:41.694Z,6.88
2022-08-22T21:13:23.224Z,6.90
2022-08-22T21:15:55.476Z,2.88
2022-08-22T21:18:41.031Z,9.02
2022-08-22T21:21:17.027Z,5.80
2022-08-22T21:23:52.559Z,3.70
2022-08-22T21:26:37.873Z,7.97
2022-08-22T21:29:10.536Z,9.75
2022-08-22T21:31:49.765Z,3.58
2022-08-22T21:34:44.749Z,7.45
2022-08-22T21:37:25.334Z,5.30
2022-08-22T21:40:03.358Z,6.80
2022-08-22T21:42:41.775Z,9.25
2022-08-22T21:45:52.253Z,3.92
2022-08-22T21:48:58.329Z,9.15
2022-08-22T21:51:45.907Z,3.70
2022-08-22T21:54:31.109Z,3.50
2022-08-22T21:57:17.360Z,5.43
2022-08-22T21:59:59.778Z,6.20
2022-08-22T22:02:35.294Z,7.18
2022-08-22T22:05:20.553Z,6.82
2022-08-22T22:07:50.824Z,10.48
2022-08-22T22:10:23.890Z,14.02
2022-08-22T22:12:57.846Z,6.88
2022-08-22T22:15:33.093Z,8.85
2022-08-22T22:18:03.482Z,4.93
2022-08-22T22:20:34.727Z,8.20
2022-08-22T22:23:05.859Z,6.30
2022-08-22T22:25:40.786Z,6.38
2022-08-22T22:28:18.042Z,5.72
2022-08-22T22:30:51.876Z,11.70
2022-08-22T22:33:24.640Z,5.97
2022-08-22T22:35:59.028Z,6.32
2022-08-22T22:38:29.562Z,8.00
2022-08-22T22:41:00.585Z,9.57
2022-08-22T22:43:31.370Z,4.78
2022-08-22T22:46:02.649Z,5.97
2022-08-22T22:48:34.121Z,4.32
2022-08-22T22:51:13.707Z,3.85
2022-08-22T22:53:46.127Z,14.70
2022-08-22T22:56:21.245Z,4.47
2022-08-22T22:59:00.953Z,6.63
2022-08-22T23:02:02.755Z,7.20
2022-08-22T23:04:35.701Z,4.43
2022-08-22T23:07:07.496Z,5.97
2022-08-22T23:09:44.530Z,3.83
2022-08-22T23:12:16.824Z,6.57
2022-08-22T23:14:47.302Z,6.20
2022-08-22T23:17:18.757Z,7.30
2022-08-22T23:19:49.418Z,4.63
2022-08-22T23:22:20.929Z,4.32
2022-08-22T23:24:51.852Z,5.97
2022-08-22T23:27:22.699Z,7.68
2022-08-22T23:29:53.269Z,9.63
2022-08-22T23:32:23.855Z,6.40
2022-08-22T23:34:55.840Z,13.23
2022-08-22T23:37:26.358Z,9.95
2022-08-22T23:42:26.709Z,7.03
2022-08-22T23:47:26.657Z,6.75
2022-08-22T23:49:57.007Z,5.15
2022-08-22T23:52:27.564Z,13.35
2022-08-22T23:54:58.211Z,7.20
2022-08-22T23:57:30.002Z,5.05
